sensor_id;sensor_type;location;lat;lon;timestamp;temperature;humidity
47600;DHT22;33323;52.124;6.018;2023-08-20T00:01:27;17.70;99.90
47600;DHT22;33323;52.124;6.018;2023-08-20T00:03:55;17.80;99.90
47600;DHT22;33323;52.124;6.018;2023-08-20T00:06:23;17.80;99.90
47600;DHT22;33323;52.124;6.018;2023-08-20T00:08:50;17.70;99.90
47600;DHT22;33323;52.124;6.018;2023-08-20T00:11:18;17.80;99.90
47600;DHT22;33323;52.124;6.018;2023-08-20T00:13:45;17.80;99.90
47600;DHT22;33323;52.124;6.018;2023-08-20T00:16:12;17.80;99.90
47600;DHT22;33323;52.124;6.018;2023-08-20T00:18:40;17.80;99.90
47600;DHT22;33323;52.124;6.018;2023-08-20T00:21:08;17.80;99.90
47600;DHT22;33323;52.124;6.018;2023-08-20T00:23:36;17.70;99.90
47600;DHT22;33323;52.124;6.018;2023-08-20T00:26:04;17.60;99.90
47600;DHT22;33323;52.124;6.018;2023-08-20T00:28:32;17.60;99.90
47600;DHT22;33323;52.124;6.018;2023-08-20T00:31:03;17.60;99.90
47600;DHT22;33323;52.124;6.018;2023-08-20T00:33:32;17.60;99.90
47600;DHT22;33323;52.124;6.018;2023-08-20T00:35:59;17.60;99.90
47600;DHT22;33323;52.124;6.018;2023-08-20T00:38:27;17.60;99.90
47600;DHT22;33323;52.124;6.018;2023-08-20T00:40:54;17.60;99.90
47600;DHT22;33323;52.124;6.018;2023-08-20T00:43:22;17.60;99.90
47600;DHT22;33323;52.124;6.018;2023-08-20T00:45:49;17.60;99.90
47600;DHT22;33323;52.124;6.018;2023-08-20T00:48:17;17.60;99.90
47600;DHT22;33323;52.124;6.018;2023-08-20T00:50:44;17.60;99.90
47600;DHT22;33323;52.124;6.018;2023-08-20T00:53:13;17.50;99.90
47600;DHT22;33323;52.124;6.018;2023-08-20T00:55:42;17.40;99.90
47600;DHT22;33323;52.124;6.018;2023-08-20T00:58:13;17.30;99.90
47600;DHT22;33323;52.124;6.018;2023-08-20T01:00:41;17.40;99.90
47600;DHT22;33323;52.124;6.018;2023-08-20T01:03:09;17.40;99.90
47600;DHT22;33323;52.124;6.018;2023-08-20T01:05:46;17.40;99.90
47600;DHT22;33323;52.124;6.018;2023-08-20T01:11:29;17.40;99.90
47600;DHT22;33323;52.124;6.018;2023-08-20T01:13:59;17.40;99.90
47600;DHT22;33323;52.124;6.018;2023-08-20T01:16:28;17.30;99.90
47600;DHT22;33323;52.124;6.018;2023-08-20T01:18:55;17.30;99.90
47600;DHT22;33323;52.124;6.018;2023-08-20T01:30:42;17.10;99.90
47600;DHT22;33323;52.124;6.018;2023-08-20T01:33:11;17.00;99.90
47600;DHT22;33323;52.124;6.018;2023-08-20T01:35:42;17.10;99.90
47600;DHT22;33323;52.124;6.018;2023-08-20T01:38:15;17.10;99.90
47600;DHT22;33323;52.124;6.018;2023-08-20T01:40:43;17.10;99.90
47600;DHT22;33323;52.124;6.018;2023-08-20T01:43:10;17.10;99.90
47600;DHT22;33323;52.124;6.018;2023-08-20T01:45:38;17.10;99.90
47600;DHT22;33323;52.124;6.018;2023-08-20T01:48:06;17.10;99.90
47600;DHT22;33323;52.124;6.018;2023-08-20T01:50:34;17.10;99.90
47600;DHT22;33323;52.124;6.018;2023-08-20T01:53:02;17.10;99.90
47600;DHT22;33323;52.124;6.018;2023-08-20T01:55:30;17.10;99.90
47600;DHT22;33323;52.124;6.018;2023-08-20T01:57:59;17.10;99.90
47600;DHT22;33323;52.124;6.018;2023-08-20T02:00:26;17.00;99.90
47600;DHT22;33323;52.124;6.018;2023-08-20T02:02:57;17.00;99.90
47600;DHT22;33323;52.124;6.018;2023-08-20T02:05:25;17.00;99.90
47600;DHT22;33323;52.124;6.018;2023-08-20T02:07:53;17.00;99.90
47600;DHT22;33323;52.124;6.018;2023-08-20T02:10:21;17.00;99.90
47600;DHT22;33323;52.124;6.018;2023-08-20T02:12:48;17.00;99.90
47600;DHT22;33323;52.124;6.018;2023-08-20T02:15:16;17.00;99.90
47600;DHT22;33323;52.124;6.018;2023-08-20T02:17:43;17.00;99.90
47600;DHT22;33323;52.124;6.018;2023-08-20T02:20:11;16.90;99.90
47600;DHT22;33323;52.124;6.018;2023-08-20T02:22:38;16.90;99.90
47600;DHT22;33323;52.124;6.018;2023-08-20T02:25:06;16.90;99.90
47600;DHT22;33323;52.124;6.018;2023-08-20T02:27:34;16.90;99.90
47600;DHT22;33323;52.124;6.018;2023-08-20T02:30:02;16.70;99.90
47600;DHT22;33323;52.124;6.018;2023-08-20T02:32:30;16.70;99.90
47600;DHT22;33323;52.124;6.018;2023-08-20T02:34:59;16.70;99.90
47600;DHT22;33323;52.124;6.018;2023-08-20T02:37:26;16.70;99.90
47600;DHT22;33323;52.124;6.018;2023-08-20T02:39:55;16.60;99.90
47600;DHT22;33323;52.124;6.018;2023-08-20T02:42:23;16.50;99.90
47600;DHT22;33323;52.124;6.018;2023-08-20T02:44:50;16.50;99.90
47600;DHT22;33323;52.124;6.018;2023-08-20T02:47:18;16.50;99.90
47600;DHT22;33323;52.124;6.018;2023-08-20T02:49:45;16.40;99.90
47600;DHT22;33323;52.124;6.018;2023-08-20T02:52:12;16.40;99.90
47600;DHT22;33323;52.124;6.018;2023-08-20T02:54:40;16.40;99.90
47600;DHT22;33323;52.124;6.018;2023-08-20T02:57:07;16.30;99.90
47600;DHT22;33323;52.124;6.018;2023-08-20T02:59:34;16.30;99.90
47600;DHT22;33323;52.124;6.018;2023-08-20T03:02:02;16.30;99.90
47600;DHT22;33323;52.124;6.018;2023-08-20T03:04:32;16.30;99.90
47600;DHT22;33323;52.124;6.018;2023-08-20T03:07:00;16.30;99.90
47600;DHT22;33323;52.124;6.018;2023-08-20T03:09:27;16.20;99.90
47600;DHT22;33323;52.124;6.018;2023-08-20T03:11:55;16.20;99.90
47600;DHT22;33323;52.124;6.018;2023-08-20T03:14:22;16.20;99.90
47600;DHT22;33323;52.124;6.018;2023-08-20T03:16:54;16.10;99.90
47600;DHT22;33323;52.124;6.018;2023-08-20T03:19:21;16.10;99.90
47600;DHT22;33323;52.124;6.018;2023-08-20T03:21:48;16.10;99.90
47600;DHT22;33323;52.124;6.018;2023-08-20T03:24:16;16.10;99.90
47600;DHT22;33323;52.124;6.018;2023-08-20T03:26:43;16.00;99.90
47600;DHT22;33323;52.124;6.018;2023-08-20T03:29:13;16.00;99.90
47600;DHT22;33323;52.124;6.018;2023-08-20T03:31:40;16.00;99.90
47600;DHT22;33323;52.124;6.018;2023-08-20T03:34:08;16.00;99.90
47600;DHT22;33323;52.124;6.018;2023-08-20T03:36:37;16.00;99.90
47600;DHT22;33323;52.124;6.018;2023-08-20T03:39:04;16.00;99.90
47600;DHT22;33323;52.124;6.018;2023-08-20T03:41:32;16.00;99.90
47600;DHT22;33323;52.124;6.018;2023-08-20T03:44:00;15.90;99.90
47600;DHT22;33323;52.124;6.018;2023-08-20T03:46:27;15.80;99.90
47600;DHT22;33323;52.124;6.018;2023-08-20T03:48:54;15.80;99.90
47600;DHT22;33323;52.124;6.018;2023-08-20T03:51:22;15.70;99.90
47600;DHT22;33323;52.124;6.018;2023-08-20T03:53:49;15.70;99.90
47600;DHT22;33323;52.124;6.018;2023-08-20T03:56:17;15.70;99.90
47600;DHT22;33323;52.124;6.018;2023-08-20T03:58:45;15.60;99.90
47600;DHT22;33323;52.124;6.018;2023-08-20T04:01:12;15.60;99.90
47600;DHT22;33323;52.124;6.018;2023-08-20T04:03:39;15.60;99.90
47600;DHT22;33323;52.124;6.018;2023-08-20T04:06:07;15.60;99.90
47600;DHT22;33323;52.124;6.018;2023-08-20T04:08:36;15.50;99.90
47600;DHT22;33323;52.124;6.018;2023-08-20T04:11:03;15.50;99.90
47600;DHT22;33323;52.124;6.018;2023-08-20T04:13:31;15.50;99.90
47600;DHT22;33323;52.124;6.018;2023-08-20T04:15:58;15.50;99.90
47600;DHT22;33323;52.124;6.018;2023-08-20T04:18:26;15.50;99.90
47600;DHT22;33323;52.124;6.018;2023-08-20T04:20:56;15.50;99.90
47600;DHT22;33323;52.124;6.018;2023-08-20T04:23:24;15.40;99.90
47600;DHT22;33323;52.124;6.018;2023-08-20T04:25:52;15.40;99.90
47600;DHT22;33323;52.124;6.018;2023-08-20T04:28:19;15.40;99.90
47600;DHT22;33323;52.124;6.018;2023-08-20T04:30:47;15.40;99.90
47600;DHT22;33323;52.124;6.018;2023-08-20T04:33:15;15.40;99.90
47600;DHT22;33323;52.124;6.018;2023-08-20T04:35:45;15.40;99.90
47600;DHT22;33323;52.124;6.018;2023-08-20T04:38:12;15.40;99.90
47600;DHT22;33323;52.124;6.018;2023-08-20T04:40:40;15.30;99.90
47600;DHT22;33323;52.124;6.018;2023-08-20T04:43:08;15.30;99.90
47600;DHT22;33323;52.124;6.018;2023-08-20T04:45:35;15.40;99.90
47600;DHT22;33323;52.124;6.018;2023-08-20T04:48:03;15.40;99.90
47600;DHT22;33323;52.124;6.018;2023-08-20T04:50:30;15.40;99.90
47600;DHT22;33323;52.124;6.018;2023-08-20T04:52:58;15.60;99.90
47600;DHT22;33323;52.124;6.018;2023-08-20T04:55:30;15.70;99.90
47600;DHT22;33323;52.124;6.018;2023-08-20T04:57:58;16.00;99.90
47600;DHT22;33323;52.124;6.018;2023-08-20T05:00:26;16.30;99.90
47600;DHT22;33323;52.124;6.018;2023-08-20T05:03:03;16.50;99.90
47600;DHT22;33323;52.124;6.018;2023-08-20T05:05:31;16.80;99.90
47600;DHT22;33323;52.124;6.018;2023-08-20T05:07:58;17.00;99.90
47600;DHT22;33323;52.124;6.018;2023-08-20T05:10:25;17.20;99.90
47600;DHT22;33323;52.124;6.018;2023-08-20T05:12:52;17.30;99.90
47600;DHT22;33323;52.124;6.018;2023-08-20T05:15:19;17.40;99.90
47600;DHT22;33323;52.124;6.018;2023-08-20T05:17:47;17.70;99.90
47600;DHT22;33323;52.124;6.018;2023-08-20T05:20:14;17.80;99.90
47600;DHT22;33323;52.124;6.018;2023-08-20T05:22:43;18.00;99.90
47600;DHT22;33323;52.124;6.018;2023-08-20T05:25:11;18.20;99.90
47600;DHT22;33323;52.124;6.018;2023-08-20T05:27:40;18.40;99.90
47600;DHT22;33323;52.124;6.018;2023-08-20T05:30:07;18.70;99.90
47600;DHT22;33323;52.124;6.018;2023-08-20T05:32:35;19.00;99.90
47600;DHT22;33323;52.124;6.018;2023-08-20T05:35:03;19.30;99.90
47600;DHT22;33323;52.124;6.018;2023-08-20T05:37:31;19.70;99.90
47600;DHT22;33323;52.124;6.018;2023-08-20T05:39:58;20.10;99.90
47600;DHT22;33323;52.124;6.018;2023-08-20T05:42:26;20.30;99.90
47600;DHT22;33323;52.124;6.018;2023-08-20T05:45:00;20.70;99.90
47600;DHT22;33323;52.124;6.018;2023-08-20T05:47:28;21.20;99.90
47600;DHT22;33323;52.124;6.018;2023-08-20T05:49:55;21.50;99.90
47600;DHT22;33323;52.124;6.018;2023-08-20T05:52:22;21.70;99.90
47600;DHT22;33323;52.124;6.018;2023-08-20T05:54:50;22.00;99.90
47600;DHT22;33323;52.124;6.018;2023-08-20T05:57:17;22.30;99.90
47600;DHT22;33323;52.124;6.018;2023-08-20T05:59:44;22.60;99.90
47600;DHT22;33323;52.124;6.018;2023-08-20T06:02:16;22.90;99.90
47600;DHT22;33323;52.124;6.018;2023-08-20T06:04:44;23.10;99.90
47600;DHT22;33323;52.124;6.018;2023-08-20T06:07:11;23.30;99.90
47600;DHT22;33323;52.124;6.018;2023-08-20T06:09:38;23.50;99.90
47600;DHT22;33323;52.124;6.018;2023-08-20T06:12:06;23.80;99.90
47600;DHT22;33323;52.124;6.018;2023-08-20T06:14:33;24.00;99.90
47600;DHT22;33323;52.124;6.018;2023-08-20T06:17:00;24.10;99.90
47600;DHT22;33323;52.124;6.018;2023-08-20T06:19:27;24.20;99.90
47600;DHT22;33323;52.124;6.018;2023-08-20T06:21:54;24.60;99.90
47600;DHT22;33323;52.124;6.018;2023-08-20T06:24:21;24.70;99.90
47600;DHT22;33323;52.124;6.018;2023-08-20T06:26:48;24.80;99.90
47600;DHT22;33323;52.124;6.018;2023-08-20T06:29:15;25.20;99.90
47600;DHT22;33323;52.124;6.018;2023-08-20T06:31:42;25.50;99.90
47600;DHT22;33323;52.124;6.018;2023-08-20T06:34:09;25.70;99.90
47600;DHT22;33323;52.124;6.018;2023-08-20T06:36:36;26.00;99.90
47600;DHT22;33323;52.124;6.018;2023-08-20T06:39:04;26.30;99.90
47600;DHT22;33323;52.124;6.018;2023-08-20T06:41:31;26.40;99.90
47600;DHT22;33323;52.124;6.018;2023-08-20T06:43:58;26.60;99.90
47600;DHT22;33323;52.124;6.018;2023-08-20T06:46:25;26.70;99.90
47600;DHT22;33323;52.124;6.018;2023-08-20T06:48:52;26.80;99.90
47600;DHT22;33323;52.124;6.018;2023-08-20T06:51:20;26.60;99.90
47600;DHT22;33323;52.124;6.018;2023-08-20T06:53:48;26.70;99.90
47600;DHT22;33323;52.124;6.018;2023-08-20T06:56:16;27.00;99.90
47600;DHT22;33323;52.124;6.018;2023-08-20T06:58:43;27.30;99.90
47600;DHT22;33323;52.124;6.018;2023-08-20T07:01:10;27.30;99.90
47600;DHT22;33323;52.124;6.018;2023-08-20T07:03:40;27.40;99.90
47600;DHT22;33323;52.124;6.018;2023-08-20T07:06:09;27.60;99.90
47600;DHT22;33323;52.124;6.018;2023-08-20T07:08:40;27.20;99.90
47600;DHT22;33323;52.124;6.018;2023-08-20T07:11:08;26.70;99.90
47600;DHT22;33323;52.124;6.018;2023-08-20T07:13:35;26.40;99.90
47600;DHT22;33323;52.124;6.018;2023-08-20T07:16:03;26.20;99.90
47600;DHT22;33323;52.124;6.018;2023-08-20T07:18:30;25.80;99.90
47600;DHT22;33323;52.124;6.018;2023-08-20T07:20:57;25.50;99.90
47600;DHT22;33323;52.124;6.018;2023-08-20T07:23:25;25.20;99.90
47600;DHT22;33323;52.124;6.018;2023-08-20T07:26:07;24.90;99.90
47600;DHT22;33323;52.124;6.018;2023-08-20T07:28:35;24.60;99.90
47600;DHT22;33323;52.124;6.018;2023-08-20T07:31:31;24.40;99.90
47600;DHT22;33323;52.124;6.018;2023-08-20T07:34:01;24.00;99.90
47600;DHT22;33323;52.124;6.018;2023-08-20T07:36:32;23.80;99.90
47600;DHT22;33323;52.124;6.018;2023-08-20T07:39:00;23.90;99.90
47600;DHT22;33323;52.124;6.018;2023-08-20T07:41:28;24.00;99.90
47600;DHT22;33323;52.124;6.018;2023-08-20T07:43:56;23.90;99.90
47600;DHT22;33323;52.124;6.018;2023-08-20T07:46:23;24.00;99.90
47600;DHT22;33323;52.124;6.018;2023-08-20T07:48:50;24.20;99.90
47600;DHT22;33323;52.124;6.018;2023-08-20T07:51:16;24.30;99.90
47600;DHT22;33323;52.124;6.018;2023-08-20T07:53:44;24.50;99.90
47600;DHT22;33323;52.124;6.018;2023-08-20T07:56:11;24.80;99.90
47600;DHT22;33323;52.124;6.018;2023-08-20T07:58:38;25.00;99.90
47600;DHT22;33323;52.124;6.018;2023-08-20T08:01:05;25.30;99.90
47600;DHT22;33323;52.124;6.018;2023-08-20T08:03:32;25.50;99.90
47600;DHT22;33323;52.124;6.018;2023-08-20T08:05:59;25.80;99.90
47600;DHT22;33323;52.124;6.018;2023-08-20T08:08:26;26.10;99.90
47600;DHT22;33323;52.124;6.018;2023-08-20T08:10:53;26.10;99.90
47600;DHT22;33323;52.124;6.018;2023-08-20T08:13:22;26.30;99.90
47600;DHT22;33323;52.124;6.018;2023-08-20T08:15:50;26.50;99.90
47600;DHT22;33323;52.124;6.018;2023-08-20T08:18:19;26.70;99.90
47600;DHT22;33323;52.124;6.018;2023-08-20T08:20:46;26.90;99.90
47600;DHT22;33323;52.124;6.018;2023-08-20T08:23:14;27.00;99.90
47600;DHT22;33323;52.124;6.018;2023-08-20T08:25:41;27.20;99.90
47600;DHT22;33323;52.124;6.018;2023-08-20T08:28:08;27.50;99.90
47600;DHT22;33323;52.124;6.018;2023-08-20T08:30:35;27.80;99.90
47600;DHT22;33323;52.124;6.018;2023-08-20T08:33:02;28.30;99.90
47600;DHT22;33323;52.124;6.018;2023-08-20T08:35:29;28.50;99.90
47600;DHT22;33323;52.124;6.018;2023-08-20T08:37:56;28.70;99.90
47600;DHT22;33323;52.124;6.018;2023-08-20T08:40:28;28.30;99.90
47600;DHT22;33323;52.124;6.018;2023-08-20T08:42:56;28.10;99.90
47600;DHT22;33323;52.124;6.018;2023-08-20T08:45:24;28.20;99.90
47600;DHT22;33323;52.124;6.018;2023-08-20T08:47:54;28.20;99.90
47600;DHT22;33323;52.124;6.018;2023-08-20T08:50:22;28.20;99.90
47600;DHT22;33323;52.124;6.018;2023-08-20T08:52:51;28.40;99.90
47600;DHT22;33323;52.124;6.018;2023-08-20T08:55:21;28.90;99.90
47600;DHT22;33323;52.124;6.018;2023-08-20T08:57:48;29.10;99.90
47600;DHT22;33323;52.124;6.018;2023-08-20T09:00:15;29.20;99.90
47600;DHT22;33323;52.124;6.018;2023-08-20T09:02:42;29.10;99.90
47600;DHT22;33323;52.124;6.018;2023-08-20T09:05:09;29.10;99.90
47600;DHT22;33323;52.124;6.018;2023-08-20T09:07:44;29.10;99.90
47600;DHT22;33323;52.124;6.018;2023-08-20T09:10:11;29.20;99.90
47600;DHT22;33323;52.124;6.018;2023-08-20T09:12:39;29.10;99.90
47600;DHT22;33323;52.124;6.018;2023-08-20T09:15:10;29.10;99.90
47600;DHT22;33323;52.124;6.018;2023-08-20T09:17:40;29.30;99.90
47600;DHT22;33323;52.124;6.018;2023-08-20T09:20:08;29.70;99.90
47600;DHT22;33323;52.124;6.018;2023-08-20T09:22:36;29.70;99.90
47600;DHT22;33323;52.124;6.018;2023-08-20T09:25:04;29.90;99.90
47600;DHT22;33323;52.124;6.018;2023-08-20T09:27:39;30.20;99.90
47600;DHT22;33323;52.124;6.018;2023-08-20T09:30:09;30.30;99.90
47600;DHT22;33323;52.124;6.018;2023-08-20T09:32:37;30.00;99.90
47600;DHT22;33323;52.124;6.018;2023-08-20T09:35:05;29.70;99.90
47600;DHT22;33323;52.124;6.018;2023-08-20T09:37:33;29.50;99.90
47600;DHT22;33323;52.124;6.018;2023-08-20T09:40:01;29.60;99.90
47600;DHT22;33323;52.124;6.018;2023-08-20T09:42:31;29.40;99.90
47600;DHT22;33323;52.124;6.018;2023-08-20T09:45:01;29.60;99.90
47600;DHT22;33323;52.124;6.018;2023-08-20T09:47:34;29.80;99.90
47600;DHT22;33323;52.124;6.018;2023-08-20T09:50:07;30.10;99.90
47600;DHT22;33323;52.124;6.018;2023-08-20T09:52:44;30.20;99.90
47600;DHT22;33323;52.124;6.018;2023-08-20T09:55:29;30.20;99.90
47600;DHT22;33323;52.124;6.018;2023-08-20T09:57:57;30.40;99.90
47600;DHT22;33323;52.124;6.018;2023-08-20T10:00:27;30.40;99.90
47600;DHT22;33323;52.124;6.018;2023-08-20T10:02:55;30.70;99.90
47600;DHT22;33323;52.124;6.018;2023-08-20T10:05:23;30.60;99.90
47600;DHT22;33323;52.124;6.018;2023-08-20T10:07:50;30.90;99.90
47600;DHT22;33323;52.124;6.018;2023-08-20T10:10:18;30.80;99.90
47600;DHT22;33323;52.124;6.018;2023-08-20T10:12:45;30.80;99.90
47600;DHT22;33323;52.124;6.018;2023-08-20T10:15:14;30.50;99.90
47600;DHT22;33323;52.124;6.018;2023-08-20T10:17:43;30.50;99.90
47600;DHT22;33323;52.124;6.018;2023-08-20T10:20:13;30.60;99.90
47600;DHT22;33323;52.124;6.018;2023-08-20T10:22:43;30.40;99.90
47600;DHT22;33323;52.124;6.018;2023-08-20T10:25:22;30.40;99.90
47600;DHT22;33323;52.124;6.018;2023-08-20T10:27:50;30.10;99.90
47600;DHT22;33323;52.124;6.018;2023-08-20T10:30:18;30.20;99.90
47600;DHT22;33323;52.124;6.018;2023-08-20T10:32:49;30.10;99.90
47600;DHT22;33323;52.124;6.018;2023-08-20T10:35:28;30.10;99.90
47600;DHT22;33323;52.124;6.018;2023-08-20T10:38:14;30.00;99.90
47600;DHT22;33323;52.124;6.018;2023-08-20T10:40:57;29.80;99.90
47600;DHT22;33323;52.124;6.018;2023-08-20T10:43:36;30.00;99.90
47600;DHT22;33323;52.124;6.018;2023-08-20T10:46:08;29.70;99.90
47600;DHT22;33323;52.124;6.018;2023-08-20T10:48:51;29.40;99.90
47600;DHT22;33323;52.124;6.018;2023-08-20T10:51:32;29.40;99.90
47600;DHT22;33323;52.124;6.018;2023-08-20T10:56:47;29.70;99.90
47600;DHT22;33323;52.124;6.018;2023-08-20T10:59:22;30.10;99.90
47600;DHT22;33323;52.124;6.018;2023-08-20T11:01:54;29.90;99.90
47600;DHT22;33323;52.124;6.018;2023-08-20T11:04:23;30.20;99.90
47600;DHT22;33323;52.124;6.018;2023-08-20T11:06:58;29.90;99.90
47600;DHT22;33323;52.124;6.018;2023-08-20T11:09:27;30.00;99.90
47600;DHT22;33323;52.124;6.018;2023-08-20T11:11:58;29.90;99.90
47600;DHT22;33323;52.124;6.018;2023-08-20T11:14:25;29.80;99.90
47600;DHT22;33323;52.124;6.018;2023-08-20T11:16:52;29.80;99.90
47600;DHT22;33323;52.124;6.018;2023-08-20T11:19:21;29.20;99.90
47600;DHT22;33323;52.124;6.018;2023-08-20T11:21:50;29.00;99.90
47600;DHT22;33323;52.124;6.018;2023-08-20T11:24:17;29.10;99.90
47600;DHT22;33323;52.124;6.018;2023-08-20T11:26:47;29.50;99.90
47600;DHT22;33323;52.124;6.018;2023-08-20T11:29:16;29.50;99.90
47600;DHT22;33323;52.124;6.018;2023-08-20T11:31:49;29.70;99.90
47600;DHT22;33323;52.124;6.018;2023-08-20T11:34:18;29.90;99.90
47600;DHT22;33323;52.124;6.018;2023-08-20T11:36:46;30.00;99.90
47600;DHT22;33323;52.124;6.018;2023-08-20T11:39:13;29.80;99.90
47600;DHT22;33323;52.124;6.018;2023-08-20T11:41:40;29.80;99.90
47600;DHT22;33323;52.124;6.018;2023-08-20T11:44:10;30.00;99.90
47600;DHT22;33323;52.124;6.018;2023-08-20T11:46:44;30.30;99.90
47600;DHT22;33323;52.124;6.018;2023-08-20T11:49:13;30.50;99.90
47600;DHT22;33323;52.124;6.018;2023-08-20T11:51:42;30.40;99.90
47600;DHT22;33323;52.124;6.018;2023-08-20T11:54:17;30.30;99.90
47600;DHT22;33323;52.124;6.018;2023-08-20T11:56:46;30.10;99.90
47600;DHT22;33323;52.124;6.018;2023-08-20T11:59:15;29.40;99.90
47600;DHT22;33323;52.124;6.018;2023-08-20T12:01:43;29.40;99.90
47600;DHT22;33323;52.124;6.018;2023-08-20T12:04:10;29.40;99.90
47600;DHT22;33323;52.124;6.018;2023-08-20T12:06:38;29.60;99.90
47600;DHT22;33323;52.124;6.018;2023-08-20T12:09:22;29.20;99.90
47600;DHT22;33323;52.124;6.018;2023-08-20T12:11:52;29.00;99.90
47600;DHT22;33323;52.124;6.018;2023-08-20T12:14:23;29.30;99.90
47600;DHT22;33323;52.124;6.018;2023-08-20T12:16:54;29.60;99.90
47600;DHT22;33323;52.124;6.018;2023-08-20T12:19:22;29.00;99.90
47600;DHT22;33323;52.124;6.018;2023-08-20T12:21:54;28.90;99.90
47600;DHT22;33323;52.124;6.018;2023-08-20T12:24:22;28.20;99.90
47600;DHT22;33323;52.124;6.018;2023-08-20T12:26:50;27.80;99.90
47600;DHT22;33323;52.124;6.018;2023-08-20T12:29:17;27.70;99.90
47600;DHT22;33323;52.124;6.018;2023-08-20T12:31:45;28.40;99.90
47600;DHT22;33323;52.124;6.018;2023-08-20T12:34:13;28.40;99.90
47600;DHT22;33323;52.124;6.018;2023-08-20T12:36:41;28.20;99.90
47600;DHT22;33323;52.124;6.018;2023-08-20T12:39:08;28.00;99.90
47600;DHT22;33323;52.124;6.018;2023-08-20T12:41:35;28.00;99.90
47600;DHT22;33323;52.124;6.018;2023-08-20T12:44:03;28.50;99.90
47600;DHT22;33323;52.124;6.018;2023-08-20T12:46:31;28.60;99.90
47600;DHT22;33323;52.124;6.018;2023-08-20T12:48:59;28.30;99.90
47600;DHT22;33323;52.124;6.018;2023-08-20T12:51:26;28.50;99.90
47600;DHT22;33323;52.124;6.018;2023-08-20T12:53:54;28.90;99.90
47600;DHT22;33323;52.124;6.018;2023-08-20T12:56:21;29.20;99.90
47600;DHT22;33323;52.124;6.018;2023-08-20T12:58:48;29.70;99.90
47600;DHT22;33323;52.124;6.018;2023-08-20T13:01:15;29.90;99.90
47600;DHT22;33323;52.124;6.018;2023-08-20T13:03:44;29.40;99.90
47600;DHT22;33323;52.124;6.018;2023-08-20T13:06:12;29.10;99.90
47600;DHT22;33323;52.124;6.018;2023-08-20T13:08:39;28.90;99.90
47600;DHT22;33323;52.124;6.018;2023-08-20T13:11:09;28.40;99.90
47600;DHT22;33323;52.124;6.018;2023-08-20T13:13:41;28.10;99.90
47600;DHT22;33323;52.124;6.018;2023-08-20T13:16:09;28.10;99.90
47600;DHT22;33323;52.124;6.018;2023-08-20T13:18:36;28.10;99.90
47600;DHT22;33323;52.124;6.018;2023-08-20T13:21:04;27.80;99.90
47600;DHT22;33323;52.124;6.018;2023-08-20T13:23:31;27.50;99.90
47600;DHT22;33323;52.124;6.018;2023-08-20T13:25:58;27.30;99.90
47600;DHT22;33323;52.124;6.018;2023-08-20T13:28:25;27.50;99.90
47600;DHT22;33323;52.124;6.018;2023-08-20T13:30:52;27.60;99.90
47600;DHT22;33323;52.124;6.018;2023-08-20T13:33:19;27.80;99.90
47600;DHT22;33323;52.124;6.018;2023-08-20T13:35:47;28.30;99.90
47600;DHT22;33323;52.124;6.018;2023-08-20T13:38:14;28.80;99.90
47600;DHT22;33323;52.124;6.018;2023-08-20T13:40:41;29.10;99.90
47600;DHT22;33323;52.124;6.018;2023-08-20T13:43:08;29.20;99.90
47600;DHT22;33323;52.124;6.018;2023-08-20T13:45:36;29.20;99.90
47600;DHT22;33323;52.124;6.018;2023-08-20T13:48:04;29.30;99.90
47600;DHT22;33323;52.124;6.018;2023-08-20T13:50:31;29.30;99.90
47600;DHT22;33323;52.124;6.018;2023-08-20T13:52:59;29.30;99.90
47600;DHT22;33323;52.124;6.018;2023-08-20T13:55:28;29.40;99.90
47600;DHT22;33323;52.124;6.018;2023-08-20T13:57:56;29.50;99.90
47600;DHT22;33323;52.124;6.018;2023-08-20T14:00:23;29.50;99.90
47600;DHT22;33323;52.124;6.018;2023-08-20T14:02:51;29.30;99.90
47600;DHT22;33323;52.124;6.018;2023-08-20T14:05:19;29.50;99.90
47600;DHT22;33323;52.124;6.018;2023-08-20T14:07:46;29.50;99.90
47600;DHT22;33323;52.124;6.018;2023-08-20T14:10:13;29.20;99.90
47600;DHT22;33323;52.124;6.018;2023-08-20T14:12:41;28.60;99.90
47600;DHT22;33323;52.124;6.018;2023-08-20T14:15:09;28.50;99.90
47600;DHT22;33323;52.124;6.018;2023-08-20T14:17:36;28.80;99.90
47600;DHT22;33323;52.124;6.018;2023-08-20T14:20:05;28.90;99.90
47600;DHT22;33323;52.124;6.018;2023-08-20T14:22:34;29.20;99.90
47600;DHT22;33323;52.124;6.018;2023-08-20T14:25:02;29.20;99.90
47600;DHT22;33323;52.124;6.018;2023-08-20T14:27:30;29.50;99.90
47600;DHT22;33323;52.124;6.018;2023-08-20T14:29:58;29.60;99.90
47600;DHT22;33323;52.124;6.018;2023-08-20T14:32:25;29.50;99.90
47600;DHT22;33323;52.124;6.018;2023-08-20T14:34:52;29.10;99.90
47600;DHT22;33323;52.124;6.018;2023-08-20T14:37:19;28.70;99.90
47600;DHT22;33323;52.124;6.018;2023-08-20T14:39:47;28.80;99.90
47600;DHT22;33323;52.124;6.018;2023-08-20T14:42:16;28.80;99.90
47600;DHT22;33323;52.124;6.018;2023-08-20T14:44:43;28.80;99.90
47600;DHT22;33323;52.124;6.018;2023-08-20T14:47:11;28.90;99.90
47600;DHT22;33323;52.124;6.018;2023-08-20T14:49:38;29.00;99.90
47600;DHT22;33323;52.124;6.018;2023-08-20T14:52:06;29.00;99.90
47600;DHT22;33323;52.124;6.018;2023-08-20T14:54:45;29.20;99.90
47600;DHT22;33323;52.124;6.018;2023-08-20T14:57:13;29.00;99.90
47600;DHT22;33323;52.124;6.018;2023-08-20T14:59:44;29.20;99.90
47600;DHT22;33323;52.124;6.018;2023-08-20T15:02:11;29.30;99.90
47600;DHT22;33323;52.124;6.018;2023-08-20T15:04:38;29.10;99.90
47600;DHT22;33323;52.124;6.018;2023-08-20T15:07:05;28.60;99.90
47600;DHT22;33323;52.124;6.018;2023-08-20T15:09:33;28.20;99.90
47600;DHT22;33323;52.124;6.018;2023-08-20T15:12:00;27.90;99.90
47600;DHT22;33323;52.124;6.018;2023-08-20T15:14:27;27.90;99.90
47600;DHT22;33323;52.124;6.018;2023-08-20T15:16:54;27.90;99.90
47600;DHT22;33323;52.124;6.018;2023-08-20T15:19:22;28.10;99.90
47600;DHT22;33323;52.124;6.018;2023-08-20T15:21:49;28.50;99.90
47600;DHT22;33323;52.124;6.018;2023-08-20T15:24:16;28.60;99.90
47600;DHT22;33323;52.124;6.018;2023-08-20T15:26:43;28.20;99.90
47600;DHT22;33323;52.124;6.018;2023-08-20T15:29:10;28.00;99.90
47600;DHT22;33323;52.124;6.018;2023-08-20T15:31:38;27.90;99.90
47600;DHT22;33323;52.124;6.018;2023-08-20T15:34:05;27.70;99.90
47600;DHT22;33323;52.124;6.018;2023-08-20T15:36:32;27.40;99.90
47600;DHT22;33323;52.124;6.018;2023-08-20T15:39:00;27.20;99.90
47600;DHT22;33323;52.124;6.018;2023-08-20T15:41:27;27.10;99.90
47600;DHT22;33323;52.124;6.018;2023-08-20T15:43:54;27.00;99.90
47600;DHT22;33323;52.124;6.018;2023-08-20T15:46:22;27.20;99.90
47600;DHT22;33323;52.124;6.018;2023-08-20T15:48:51;27.40;99.90
47600;DHT22;33323;52.124;6.018;2023-08-20T15:51:19;27.50;99.90
47600;DHT22;33323;52.124;6.018;2023-08-20T15:53:46;27.50;99.90